createdAt,value
2018-03-29T00:02:20.406Z,4.78
2018-03-29T00:04:48.962Z,5.20
2018-03-29T00:07:18.262Z,5.40
2018-03-29T00:09:46.702Z,4.60
2018-03-29T00:12:15.326Z,4.40
2018-03-29T00:14:43.905Z,4.90
2018-03-29T00:17:12.314Z,4.82
2018-03-29T00:19:40.687Z,5.05
2018-03-29T00:22:09.068Z,4.55
2018-03-29T00:24:37.726Z,4.82
2018-03-29T00:27:06.111Z,5.05
2018-03-29T00:29:35.298Z,5.45
2018-03-29T00:32:04.602Z,6.22
2018-03-29T00:34:32.987Z,5.80
2018-03-29T00:37:01.417Z,5.87
2018-03-29T00:39:30.046Z,6.60
2018-03-29T00:41:59.162Z,6.37
2018-03-29T00:44:27.721Z,5.85
2018-03-29T00:46:56.173Z,6.25
2018-03-29T00:49:24.553Z,5.22
2018-03-29T00:51:53.051Z,5.30
2018-03-29T00:54:21.471Z,5.62
2018-03-29T00:56:49.842Z,6.25
2018-03-29T00:59:18.405Z,5.90
2018-03-29T01:01:47.587Z,5.95
2018-03-29T01:04:15.970Z,6.10
2018-03-29T01:06:44.562Z,6.03
2018-03-29T01:09:12.986Z,6.05
2018-03-29T01:11:41.377Z,5.72
2018-03-29T01:14:09.821Z,5.68
2018-03-29T01:16:38.209Z,5.55
2018-03-29T01:19:06.630Z,4.03
2018-03-29T01:21:35.459Z,4.30
2018-03-29T01:24:04.026Z,4.43
2018-03-29T01:26:32.609Z,5.22
2018-03-29T01:29:01.791Z,4.30
2018-03-29T01:31:31.028Z,4.72
2018-03-29T01:33:59.593Z,4.20
2018-03-29T01:36:27.996Z,4.50
2018-03-29T01:38:56.470Z,4.28
2018-03-29T01:41:24.879Z,4.25
2018-03-29T01:43:53.255Z,5.55
2018-03-29T01:46:22.098Z,4.20
2018-03-29T01:48:51.304Z,4.55
2018-03-29T01:51:20.446Z,3.40
2018-03-29T01:53:48.972Z,3.92
2018-03-29T01:56:17.417Z,3.22
2018-03-29T01:58:45.809Z,3.50
2018-03-29T02:01:14.962Z,2.55
2018-03-29T02:03:43.608Z,2.90
2018-03-29T02:06:12.197Z,3.60
2018-03-29T02:08:40.878Z,2.75
2018-03-29T02:11:10.176Z,3.28
2018-03-29T02:13:38.644Z,3.55
2018-03-29T02:16:07.139Z,3.75
2018-03-29T02:18:35.725Z,3.12
2018-03-29T02:21:04.214Z,3.15
2018-03-29T02:23:32.785Z,3.35
2018-03-29T02:26:01.209Z,2.60
2018-03-29T02:28:29.747Z,3.62
2018-03-29T02:30:58.957Z,2.62
2018-03-29T02:33:27.348Z,3.00
2018-03-29T02:35:55.908Z,4.95
2018-03-29T02:38:25.209Z,3.03
2018-03-29T02:40:54.506Z,4.28
2018-03-29T02:43:24.112Z,4.18
2018-03-29T02:45:53.247Z,3.40
2018-03-29T02:48:21.621Z,4.10
2018-03-29T02:50:50.048Z,3.58
2018-03-29T02:53:18.653Z,4.20
2018-03-29T02:55:47.091Z,4.90
2018-03-29T02:58:16.020Z,4.97
2018-03-29T03:00:45.235Z,4.87
2018-03-29T03:03:13.637Z,6.62
2018-03-29T03:05:42.280Z,5.22
2018-03-29T03:08:11.415Z,6.57
2018-03-29T03:10:39.868Z,5.60
2018-03-29T03:13:08.290Z,5.95
2018-03-29T03:15:36.662Z,4.90
2018-03-29T03:18:05.104Z,6.10
2018-03-29T03:20:33.482Z,6.03
2018-03-29T03:23:01.867Z,6.10
2018-03-29T03:25:30.345Z,5.65
2018-03-29T03:27:58.820Z,5.20
2018-03-29T03:30:27.201Z,4.80
2018-03-29T03:32:55.602Z,5.00
2018-03-29T03:35:23.967Z,6.97
2018-03-29T03:37:52.529Z,5.12
2018-03-29T03:40:21.829Z,4.95
2018-03-29T03:42:50.981Z,6.07
2018-03-29T03:45:19.508Z,4.45
2018-03-29T03:47:48.808Z,7.97
2018-03-29T03:50:17.570Z,6.53
2018-03-29T03:52:45.974Z,4.47
2018-03-29T03:55:14.472Z,5.15
2018-03-29T03:57:43.036Z,5.53
2018-03-29T04:00:11.638Z,4.12
2018-03-29T04:02:40.132Z,5.95
2018-03-29T04:05:08.681Z,4.35
2018-03-29T04:07:37.981Z,4.03
2018-03-29T04:10:07.193Z,5.35
2018-03-29T04:12:35.616Z,5.70
2018-03-29T04:15:04.249Z,4.22
2018-03-29T04:17:33.386Z,5.18
2018-03-29T04:20:01.798Z,5.03
2018-03-29T04:22:31.042Z,5.68
2018-03-29T04:24:59.521Z,6.07
2018-03-29T04:27:27.886Z,7.53
2018-03-29T04:29:56.279Z,7.43
2018-03-29T04:32:24.944Z,4.60
2018-03-29T04:34:53.521Z,5.50
2018-03-29T04:37:22.110Z,5.82
2018-03-29T04:39:50.541Z,7.90
2018-03-29T04:42:18.924Z,6.93
2018-03-29T04:44:47.326Z,6.30
2018-03-29T04:47:15.731Z,7.65
2018-03-29T04:49:44.211Z,7.53
2018-03-29T04:52:13.339Z,8.25
2018-03-29T04:54:41.882Z,6.47
2018-03-29T04:57:11.009Z,7.10
2018-03-29T04:59:39.453Z,8.35
2018-03-29T05:02:08.629Z,8.25
2018-03-29T05:04:37.517Z,10.93
2018-03-29T05:07:06.686Z,7.05
2018-03-29T05:09:35.228Z,9.75
2018-03-29T05:12:04.444Z,9.82
2018-03-29T05:14:32.811Z,11.60
2018-03-29T05:17:01.382Z,9.68
2018-03-29T05:19:29.884Z,14.05
2018-03-29T05:21:58.275Z,11.80
2018-03-29T05:24:26.647Z,9.57
2018-03-29T05:26:55.120Z,12.10
2018-03-29T05:29:23.688Z,10.68
2018-03-29T05:31:52.877Z,8.43
2018-03-29T05:34:21.468Z,10.30
2018-03-29T05:36:50.663Z,7.72
2018-03-29T05:39:20.288Z,7.28
2018-03-29T05:41:48.852Z,8.23
2018-03-29T05:44:18.150Z,10.52
2018-03-29T05:46:46.581Z,7.57
2018-03-29T05:49:14.957Z,9.30
2018-03-29T05:51:43.347Z,11.93
2018-03-29T05:54:11.972Z,8.25
2018-03-29T05:56:40.552Z,10.82
2018-03-29T05:59:09.141Z,11.50
2018-03-29T06:01:38.251Z,10.25
2018-03-29T06:04:06.636Z,11.93
2018-03-29T06:06:35.047Z,13.30
2018-03-29T06:09:03.781Z,10.85
2018-03-29T06:11:32.465Z,9.75
2018-03-29T06:14:10.470Z,9.50
2018-03-29T06:16:44.577Z,9.93
2018-03-29T06:19:13.878Z,11.40
2018-03-29T06:21:42.568Z,12.52
2018-03-29T06:24:11.888Z,13.70
2018-03-29T06:26:40.377Z,12.30
2018-03-29T06:29:08.933Z,12.27
2018-03-29T06:31:37.432Z,14.27
2018-03-29T06:34:05.992Z,11.82
2018-03-29T06:36:34.570Z,17.17
2018-03-29T06:39:08.797Z,14.05
2018-03-29T06:41:38.094Z,16.33
2018-03-29T06:44:07.492Z,13.45
2018-03-29T06:46:36.696Z,12.60
2018-03-29T06:49:05.903Z,15.85
2018-03-29T06:51:34.474Z,14.95
2018-03-29T06:54:03.053Z,14.63
2018-03-29T06:56:32.351Z,17.27
2018-03-29T06:59:01.964Z,15.88
2018-03-29T07:01:30.546Z,13.75
2018-03-29T07:03:59.847Z,18.80
2018-03-29T07:06:28.427Z,18.45
2018-03-29T07:08:57.833Z,16.98
2018-03-29T07:11:26.284Z,14.75
2018-03-29T07:13:55.306Z,18.90
2018-03-29T07:16:23.887Z,15.43
2018-03-29T07:18:52.289Z,16.00
2018-03-29T07:21:20.851Z,17.77
2018-03-29T07:23:49.240Z,14.00
2018-03-29T07:26:18.117Z,16.17
2018-03-29T07:28:46.701Z,17.98
2018-03-29T07:31:15.281Z,17.52
2018-03-29T07:33:43.864Z,14.48
2018-03-29T07:36:13.063Z,16.20
2018-03-29T07:38:42.271Z,18.90
2018-03-29T07:41:10.846Z,14.75
2018-03-29T07:43:39.243Z,19.48
2018-03-29T07:46:07.671Z,17.40
2018-03-29T07:48:36.820Z,17.65
2018-03-29T07:51:05.379Z,19.00
2018-03-29T07:53:34.269Z,18.10
2018-03-29T07:56:03.415Z,18.95
2018-03-29T07:58:31.842Z,17.52
2018-03-29T08:01:01.147Z,21.02
2018-03-29T08:03:29.535Z,20.23
2018-03-29T08:05:58.030Z,15.93
2018-03-29T08:08:26.587Z,14.60
2018-03-29T08:10:55.886Z,19.48
2018-03-29T08:13:25.090Z,15.52
2018-03-29T08:15:53.668Z,16.20
2018-03-29T08:18:22.967Z,17.92
2018-03-29T08:20:51.560Z,17.00
2018-03-29T08:23:20.137Z,13.77
2018-03-29T08:25:48.521Z,17.48
2018-03-29T08:28:18.768Z,15.40
2018-03-29T08:30:47.149Z,16.85
2018-03-29T08:33:15.566Z,16.08
2018-03-29T08:35:45.204Z,18.37
2018-03-29T08:38:13.786Z,17.62
2018-03-29T08:40:42.248Z,20.40
2018-03-29T08:43:11.423Z,19.77
2018-03-29T08:45:39.790Z,18.83
2018-03-29T08:48:08.334Z,20.27
2018-03-29T08:50:36.723Z,19.70
2018-03-29T08:53:05.286Z,23.12
2018-03-29T08:55:34.031Z,23.08
2018-03-29T08:58:02.480Z,20.02
2018-03-29T09:00:31.034Z,24.58
2018-03-29T09:02:59.484Z,23.05
2018-03-29T09:05:27.868Z,26.80
2018-03-29T09:07:57.108Z,27.35
2018-03-29T09:10:25.776Z,26.23
2018-03-29T09:12:54.177Z,26.98
2018-03-29T09:15:22.652Z,24.77
2018-03-29T09:17:51.214Z,29.37
2018-03-29T09:20:19.796Z,27.10
2018-03-29T09:22:48.380Z,27.50
2018-03-29T09:25:17.527Z,26.90
2018-03-29T09:27:46.467Z,25.55
2018-03-29T09:30:14.867Z,25.70
2018-03-29T09:32:43.428Z,25.80
2018-03-29T09:35:12.016Z,25.42
2018-03-29T09:37:40.452Z,25.15
2018-03-29T09:40:08.836Z,22.80
2018-03-29T09:42:38.888Z,28.00
2018-03-29T09:45:08.078Z,27.70
2018-03-29T09:47:37.383Z,28.67
2018-03-29T09:50:06.684Z,28.95
2018-03-29T09:52:35.104Z,30.85
2018-03-29T09:55:03.580Z,32.13
2018-03-29T09:57:31.964Z,33.53
2018-03-29T10:00:00.347Z,29.83
2018-03-29T10:02:31.508Z,30.60
2018-03-29T10:05:05.097Z,29.75
2018-03-29T10:07:34.456Z,30.55
2018-03-29T10:10:03.029Z,30.15
2018-03-29T10:12:31.617Z,30.20
2018-03-29T10:15:00.195Z,29.98
2018-03-29T10:17:28.628Z,27.27
2018-03-29T10:19:57.260Z,28.27
2018-03-29T10:22:25.754Z,26.90
2018-03-29T10:24:54.139Z,25.83
2018-03-29T10:27:22.700Z,26.23
2018-03-29T10:29:51.096Z,28.60
2018-03-29T10:32:19.487Z,27.90
2018-03-29T10:34:47.912Z,26.67
2018-03-29T10:37:16.526Z,27.08
2018-03-29T10:39:45.211Z,27.48
2018-03-29T10:42:13.795Z,27.47
2018-03-29T10:44:42.700Z,26.90
2018-03-29T10:47:11.088Z,26.27
2018-03-29T10:49:39.490Z,28.10
2018-03-29T10:52:08.034Z,27.70
2018-03-29T10:54:36.603Z,24.12
2018-03-29T10:57:05.186Z,24.20
2018-03-29T10:59:34.588Z,24.70
2018-03-29T11:02:03.902Z,25.23
2018-03-29T11:04:32.476Z,23.85
2018-03-29T11:07:01.159Z,25.50
2018-03-29T11:09:29.549Z,21.67
2018-03-29T11:11:58.127Z,22.73
2018-03-29T11:14:26.807Z,19.93
2018-03-29T11:16:55.384Z,19.60
2018-03-29T11:19:24.594Z,21.40
2018-03-29T11:21:53.169Z,23.13
2018-03-29T11:24:21.756Z,19.20
2018-03-29T11:26:50.334Z,17.33
2018-03-29T11:29:19.638Z,20.07
2018-03-29T11:31:48.802Z,19.10
2018-03-29T11:34:17.828Z,20.93
2018-03-29T11:36:46.411Z,18.90
2018-03-29T11:39:14.990Z,20.20
2018-03-29T11:41:43.460Z,19.07
2018-03-29T11:44:12.775Z,19.37
2018-03-29T11:46:41.356Z,18.13
2018-03-29T11:49:09.854Z,15.63
2018-03-29T11:51:38.264Z,20.27
2018-03-29T11:54:06.656Z,15.50
2018-03-29T11:56:36.753Z,17.10
2018-03-29T11:59:05.190Z,18.60
2018-03-29T12:01:34.600Z,14.80
2018-03-29T12:04:03.179Z,18.53
2018-03-29T12:06:31.571Z,16.97
2018-03-29T12:09:00.250Z,13.50
2018-03-29T12:11:28.822Z,16.80
2018-03-29T12:13:58.028Z,10.20
2018-03-29T12:16:26.608Z,11.70
2018-03-29T12:18:55.105Z,15.73
2018-03-29T12:21:23.664Z,14.80
2018-03-29T12:23:52.055Z,14.17
2018-03-29T12:26:21.239Z,14.63
2018-03-29T12:28:49.826Z,16.37
2018-03-29T12:31:18.243Z,15.07
2018-03-29T12:33:46.624Z,31.27
2018-03-29T12:36:15.445Z,18.90
2018-03-29T12:38:44.872Z,18.77
2018-03-29T12:41:13.286Z,20.45
2018-03-29T12:43:41.740Z,19.13
2018-03-29T12:46:10.624Z,18.70
2018-03-29T12:48:39.024Z,19.48
2018-03-29T12:51:07.462Z,19.62
2018-03-29T12:53:35.883Z,19.70
2018-03-29T12:56:04.356Z,22.63
2018-03-29T12:58:33.642Z,24.73
2018-03-29T13:01:02.964Z,24.60
2018-03-29T13:03:31.405Z,23.13
2018-03-29T13:06:00.777Z,21.47
2018-03-29T13:08:29.180Z,28.47
2018-03-29T13:10:57.787Z,23.33
2018-03-29T13:13:26.177Z,21.17
2018-03-29T13:15:54.561Z,27.30
2018-03-29T13:18:23.541Z,25.13
2018-03-29T13:20:51.935Z,20.30
2018-03-29T13:23:20.506Z,20.47
2018-03-29T13:25:48.990Z,20.83
2018-03-29T13:28:17.561Z,20.37
2018-03-29T13:30:46.001Z,19.30
2018-03-29T13:33:14.544Z,19.83
2018-03-29T13:35:42.947Z,13.53
2018-03-29T13:38:11.889Z,8.90
2018-03-29T13:40:40.685Z,11.77
2018-03-29T13:43:09.184Z,11.87
2018-03-29T13:45:37.744Z,10.83
2018-03-29T13:48:06.329Z,10.27
2018-03-29T13:50:34.737Z,9.93
2018-03-29T13:53:03.290Z,10.03
2018-03-29T13:55:32.483Z,9.73
2018-03-29T13:58:01.069Z,9.43
2018-03-29T14:00:29.553Z,8.93
2018-03-29T14:02:58.768Z,6.97
2018-03-29T14:05:27.332Z,9.37
2018-03-29T14:07:56.140Z,7.87
2018-03-29T14:10:24.704Z,7.10
2018-03-29T14:12:53.285Z,6.87
2018-03-29T14:15:22.608Z,8.90
2018-03-29T14:17:51.184Z,9.50
2018-03-29T14:20:19.587Z,11.00
2018-03-29T14:22:48.131Z,9.80
2018-03-29T14:25:16.511Z,10.50
2018-03-29T14:27:46.222Z,14.60
2018-03-29T14:30:14.801Z,14.23
2018-03-29T14:32:43.299Z,14.10
2018-03-29T14:35:11.737Z,12.07
2018-03-29T14:37:41.064Z,10.67
2018-03-29T14:40:09.464Z,9.13
2018-03-29T14:42:38.019Z,8.50
2018-03-29T14:45:06.480Z,9.17
2018-03-29T14:47:35.804Z,6.70
2018-03-29T14:50:05.515Z,7.53
2018-03-29T14:52:34.811Z,8.30
2018-03-29T14:55:03.240Z,8.57
2018-03-29T14:57:31.671Z,10.67
2018-03-29T15:00:00.150Z,7.75
2018-03-29T15:02:28.734Z,10.90
2018-03-29T15:04:57.116Z,10.13
2018-03-29T15:07:25.699Z,11.77
2018-03-29T15:09:54.119Z,11.70
2018-03-29T15:12:22.494Z,12.10
2018-03-29T15:14:51.077Z,15.63
2018-03-29T15:17:19.522Z,17.67
2018-03-29T15:19:47.940Z,17.33
2018-03-29T15:22:16.478Z,14.45
2018-03-29T15:24:45.667Z,14.13
2018-03-29T15:27:15.183Z,16.87
2018-03-29T15:29:43.580Z,14.87
2018-03-29T15:32:12.142Z,14.27
2018-03-29T15:34:40.622Z,12.77
2018-03-29T15:37:09.107Z,15.80
2018-03-29T15:39:37.686Z,16.43
2018-03-29T15:42:06.986Z,16.43
2018-03-29T15:44:35.599Z,15.75
2018-03-29T15:47:04.255Z,17.30
2018-03-29T15:49:33.559Z,17.27
2018-03-29T15:52:02.050Z,15.50
2018-03-29T15:54:30.618Z,16.07
2018-03-29T15:56:59.308Z,16.08
2018-03-29T15:59:27.691Z,16.20
2018-03-29T16:01:56.265Z,15.68
2018-03-29T16:04:24.953Z,14.95
2018-03-29T16:06:53.343Z,18.30
2018-03-29T16:09:23.654Z,17.40
2018-03-29T16:11:52.129Z,14.45
2018-03-29T16:14:20.558Z,13.45
2018-03-29T16:16:48.940Z,15.35
2018-03-29T16:19:17.320Z,14.07
2018-03-29T16:21:45.745Z,12.32
2018-03-29T16:24:15.049Z,11.68
2018-03-29T16:26:43.461Z,12.30
2018-03-29T16:29:12.015Z,15.95
2018-03-29T16:31:40.434Z,18.02
2018-03-29T16:34:08.892Z,15.27
2018-03-29T16:36:37.452Z,13.35
2018-03-29T16:39:06.676Z,15.55
2018-03-29T16:41:35.944Z,12.48
2018-03-29T16:44:10.168Z,14.18
2018-03-29T16:46:43.567Z,16.13
2018-03-29T16:49:12.005Z,13.38
2018-03-29T16:51:40.475Z,15.65
2018-03-29T16:54:09.018Z,14.45
2018-03-29T16:56:37.494Z,13.38
2018-03-29T16:59:05.909Z,12.57
2018-03-29T17:01:34.362Z,11.98
2018-03-29T17:04:02.833Z,14.02
2018-03-29T17:06:31.410Z,12.45
2018-03-29T17:08:59.989Z,12.25
2018-03-29T17:11:29.133Z,15.27
2018-03-29T17:13:57.772Z,15.52
2018-03-29T17:16:26.217Z,13.62
2018-03-29T17:18:54.731Z,13.02
2018-03-29T17:21:24.031Z,11.93
2018-03-29T17:23:53.209Z,14.07
2018-03-29T17:26:22.379Z,14.57
2018-03-29T17:28:50.752Z,13.15
2018-03-29T17:31:19.387Z,13.60
2018-03-29T17:33:48.789Z,15.82
2018-03-29T17:36:17.291Z,12.18
2018-03-29T17:38:45.854Z,14.15
2018-03-29T17:41:15.073Z,20.98
2018-03-29T17:43:43.472Z,18.77
2018-03-29T17:46:12.008Z,13.73
2018-03-29T17:48:40.903Z,12.75
2018-03-29T17:51:10.118Z,21.42
2018-03-29T17:53:38.499Z,18.60
2018-03-29T17:56:07.062Z,17.87
2018-03-29T17:58:35.439Z,15.43
2018-03-29T18:01:04.654Z,14.23
2018-03-29T18:03:33.135Z,16.80
2018-03-29T18:06:01.699Z,18.67
2018-03-29T18:08:31.009Z,28.58
2018-03-29T18:10:59.416Z,27.62
2018-03-29T18:13:27.801Z,26.70
2018-03-29T18:15:56.261Z,26.42
2018-03-29T18:18:25.091Z,24.63
2018-03-29T18:20:54.303Z,22.83
2018-03-29T18:23:22.754Z,25.45
2018-03-29T18:25:51.937Z,27.73
2018-03-29T18:28:20.400Z,31.60
2018-03-29T18:30:48.836Z,28.67
2018-03-29T18:33:17.208Z,32.72
2018-03-29T18:35:45.648Z,38.38
2018-03-29T18:38:14.068Z,31.33
2018-03-29T18:40:42.769Z,29.98
2018-03-29T18:43:11.272Z,32.03
2018-03-29T18:45:40.439Z,37.67
2018-03-29T18:48:08.968Z,48.53
2018-03-29T18:50:37.551Z,43.70
2018-03-29T18:53:06.368Z,57.60
2018-03-29T18:55:34.813Z,58.22
2018-03-29T18:58:03.218Z,50.83
2018-03-29T19:00:31.960Z,47.83
2018-03-29T19:03:01.471Z,53.20
2018-03-29T19:05:30.048Z,46.05
2018-03-29T19:07:58.633Z,59.63
2018-03-29T19:10:27.109Z,38.80
2018-03-29T19:12:56.315Z,45.65
2018-03-29T19:15:25.454Z,44.22
2018-03-29T19:17:53.896Z,40.12
2018-03-29T19:20:22.347Z,53.95
2018-03-29T19:22:51.600Z,47.45
2018-03-29T19:25:20.458Z,41.40
2018-03-29T19:27:51.343Z,53.67
2018-03-29T19:30:20.000Z,59.92
2018-03-29T19:32:48.397Z,28.52
2018-03-29T19:35:16.817Z,33.00
2018-03-29T19:37:45.247Z,28.38
2018-03-29T19:40:13.797Z,25.80
2018-03-29T19:42:42.174Z,25.37
2018-03-29T19:45:11.580Z,26.35
2018-03-29T19:47:40.164Z,23.92
2018-03-29T19:50:09.344Z,27.75
2018-03-29T19:52:38.555Z,22.65
2018-03-29T19:55:07.959Z,30.48
2018-03-29T19:57:37.219Z,28.77
2018-03-29T20:00:05.594Z,33.85
2018-03-29T20:02:34.851Z,32.42
2018-03-29T20:05:03.416Z,37.70
2018-03-29T20:07:32.000Z,34.22
2018-03-29T20:10:00.583Z,35.10
2018-03-29T20:12:28.978Z,36.15
2018-03-29T20:14:57.424Z,35.22
2018-03-29T20:17:27.042Z,28.83
2018-03-29T20:19:56.212Z,29.50
2018-03-29T20:22:26.128Z,29.52
2018-03-29T20:24:55.356Z,30.95
2018-03-29T20:27:24.764Z,30.37
2018-03-29T20:29:53.909Z,29.30
2018-03-29T20:32:22.458Z,32.22
2018-03-29T20:34:51.023Z,30.15
2018-03-29T20:37:20.215Z,30.77
2018-03-29T20:39:48.802Z,28.98
2018-03-29T20:42:18.016Z,34.00
2018-03-29T20:44:46.582Z,37.28
2018-03-29T20:47:15.743Z,49.65
2018-03-29T20:49:44.190Z,52.53
2018-03-29T20:52:12.746Z,46.60
2018-03-29T20:54:41.245Z,47.35
2018-03-29T20:57:09.724Z,38.22
2018-03-29T20:59:38.115Z,38.15
2018-03-29T21:02:06.515Z,41.53
2018-03-29T21:04:35.148Z,35.13
2018-03-29T21:07:03.660Z,36.35
2018-03-29T21:09:32.047Z,36.03
2018-03-29T21:12:00.692Z,39.30
2018-03-29T21:14:29.903Z,39.22
2018-03-29T21:16:58.292Z,39.92
2018-03-29T21:19:26.724Z,36.15
2018-03-29T21:21:55.149Z,37.22
2018-03-29T21:24:23.545Z,40.45
2018-03-29T21:26:52.006Z,42.67
2018-03-29T21:29:20.406Z,35.60
2018-03-29T21:31:49.022Z,38.45
2018-03-29T21:34:17.424Z,35.40
2018-03-29T21:36:46.422Z,33.67
2018-03-29T21:39:15.919Z,32.80
2018-03-29T21:41:45.433Z,35.58
2018-03-29T21:44:14.316Z,42.28
2018-03-29T21:46:42.815Z,33.85
2018-03-29T21:49:11.381Z,38.38
2018-03-29T21:51:40.086Z,41.22
2018-03-29T21:54:08.849Z,46.92
2018-03-29T21:56:37.843Z,43.08
2018-03-29T21:59:06.430Z,47.55
2018-03-29T22:01:35.598Z,39.65
2018-03-29T22:04:05.299Z,46.97
2018-03-29T22:06:33.919Z,49.78
2018-03-29T22:09:04.343Z,48.22
2018-03-29T22:11:33.343Z,47.65
2018-03-29T22:14:03.001Z,46.25
2018-03-29T22:16:31.634Z,40.70
2018-03-29T22:19:00.626Z,46.10
2018-03-29T22:21:29.408Z,48.13
2018-03-29T22:23:57.912Z,49.88
2018-03-29T22:26:26.598Z,52.35
2018-03-29T22:28:55.165Z,59.47
2018-03-29T22:31:23.747Z,53.60
2018-03-29T22:33:52.546Z,49.13
2018-03-29T22:36:21.033Z,37.40
2018-03-29T22:38:49.594Z,38.58
2018-03-29T22:41:18.748Z,37.92
2018-03-29T22:43:47.380Z,36.45
2018-03-29T22:46:15.833Z,39.67
2018-03-29T22:48:45.052Z,32.10
2018-03-29T22:51:13.547Z,43.55
2018-03-29T22:53:42.024Z,41.08
2018-03-29T22:56:10.407Z,39.45
2018-03-29T22:58:38.782Z,34.90
2018-03-29T23:01:07.280Z,39.40
2018-03-29T23:03:35.687Z,39.53
2018-03-29T23:06:04.076Z,39.28
2018-03-29T23:08:32.527Z,43.80
2018-03-29T23:11:00.903Z,41.58
2018-03-29T23:13:29.394Z,43.13
2018-03-29T23:15:58.755Z,40.05
2018-03-29T23:18:27.966Z,38.92
2018-03-29T23:20:56.356Z,39.85
2018-03-29T23:23:24.732Z,43.55
2018-03-29T23:25:53.190Z,49.58
2018-03-29T23:28:21.597Z,47.62
2018-03-29T23:30:50.074Z,44.40
2018-03-29T23:33:18.484Z,41.72
2018-03-29T23:35:46.941Z,43.97
2018-03-29T23:38:15.384Z,43.17
2018-03-29T23:40:44.974Z,48.50
2018-03-29T23:43:14.168Z,42.97
2018-03-29T23:45:42.547Z,42.17
2018-03-29T23:48:10.986Z,37.90
2018-03-29T23:50:39.431Z,33.80
2018-03-29T23:53:07.835Z,41.47
2018-03-29T23:55:36.286Z,41.45
2018-03-29T23:58:18.833Z,40.00
